createdAt,value
2022-08-09T00:00:00.046Z,101009.31
2022-08-09T00:02:33.249Z,101016.56
2022-08-09T00:05:03.126Z,101013.03
2022-08-09T00:07:46.990Z,101006.88
2022-08-09T00:10:18.106Z,101016.16
2022-08-09T00:12:51.544Z,101010.91
2022-08-09T00:15:20.155Z,101014.47
2022-08-09T00:18:07.665Z,101012.50
2022-08-09T00:20:41.487Z,101017.97
2022-08-09T00:23:58.221Z,101009.22
2022-08-09T00:26:01.480Z,101012.38
2022-08-09T00:28:32.052Z,101018.56
2022-08-09T00:31:46.750Z,101013.22
2022-08-09T00:33:51.425Z,101018.09
2022-08-09T00:36:18.705Z,101017.09
2022-08-09T00:38:45.422Z,101017.19
2022-08-09T00:44:13.639Z,101017.44
2022-08-09T00:44:15.693Z,101023.94
2022-08-09T00:46:57.771Z,101024.06
2022-08-09T00:49:32.780Z,101032.78
2022-08-09T00:52:02.130Z,101045.63
2022-08-09T00:54:36.120Z,101052.72
2022-08-09T00:57:10.366Z,101044.03
2022-08-09T00:59:41.540Z,101032.78
2022-08-09T01:02:19.341Z,101032.19
2022-08-09T01:05:14.375Z,101046.09
2022-08-09T01:08:00.321Z,101057.66
2022-08-09T01:10:37.445Z,101054.44
2022-08-09T01:13:11.727Z,101055.88
2022-08-09T01:15:52.126Z,101057.66
2022-08-09T01:18:30.241Z,101055.03
2022-08-09T01:21:13.489Z,101042.75
2022-08-09T01:24:02.075Z,101050.81
2022-08-09T01:27:10.154Z,101055.09
2022-08-09T01:29:55.143Z,101061.16
2022-08-09T01:32:31.067Z,101059.41
2022-08-09T01:35:18.268Z,101055.75
2022-08-09T01:38:07.987Z,101066.44
2022-08-09T01:40:42.502Z,101069.97
2022-08-09T01:43:10.927Z,101070.78
2022-08-09T01:45:46.038Z,101070.75
2022-08-09T01:48:15.700Z,101074.44
2022-08-09T01:50:48.256Z,101068.31
2022-08-09T01:53:20.149Z,101080.19
2022-08-09T01:55:49.966Z,101080.16
2022-08-09T01:58:17.382Z,101091.97
2022-08-09T02:00:46.228Z,101100.22
2022-08-09T02:03:19.397Z,101093.53
2022-08-09T02:06:03.931Z,101101.09
2022-08-09T02:08:57.103Z,101091.13
2022-08-09T02:11:24.698Z,101096.22
2022-08-09T02:14:14.970Z,101104.38
2022-08-09T02:16:53.118Z,101107.59
2022-08-09T02:19:38.769Z,101099.56
2022-08-09T02:22:16.785Z,101092.94
2022-08-09T02:24:51.869Z,101090.03
2022-08-09T02:27:27.483Z,101090.91
2022-08-09T02:30:10.998Z,101090.25
2022-08-09T02:32:43.264Z,101085.19
2022-08-09T02:35:23.112Z,101090.25
2022-08-09T02:38:06.951Z,101093.22
2022-08-09T02:40:36.354Z,101093.50
2022-08-09T02:43:04.731Z,101096.19
2022-08-09T02:45:41.928Z,101096.19
2022-08-09T02:48:19.644Z,101083.75
2022-08-09T02:51:02.400Z,101077.66
2022-08-09T02:53:37.020Z,101081.28
2022-08-09T02:56:06.689Z,101090.03
2022-08-09T02:58:36.775Z,101084.63
2022-08-09T03:01:08.178Z,101083.41
2022-08-09T03:04:13.847Z,101082.91
2022-08-09T03:06:27.922Z,101080.63
2022-08-09T03:08:57.302Z,101085.81
2022-08-09T03:12:05.340Z,101083.44
2022-08-09T03:14:13.422Z,101085.81
2022-08-09T03:16:44.836Z,101082.13
2022-08-09T03:19:14.545Z,101078.31
2022-08-09T03:22:03.062Z,101084.16
2022-08-09T03:24:31.674Z,101080.09
2022-08-09T03:27:17.411Z,101082.13
2022-08-09T03:29:57.558Z,101087.19
2022-08-09T03:32:30.516Z,101093.59
2022-08-09T03:34:58.795Z,101089.97
2022-08-09T03:37:56.662Z,101090.34
2022-08-09T03:40:13.191Z,101089.88
2022-08-09T03:42:43.099Z,101085.56
2022-08-09T03:45:10.836Z,101084.72
2022-08-09T03:47:40.226Z,101097.16
2022-08-09T03:50:27.606Z,101092.06
2022-08-09T03:52:57.825Z,101094.78
2022-08-09T03:55:26.743Z,101093.94
2022-08-09T03:58:06.342Z,101091.28
2022-08-09T04:00:42.703Z,101093.22
2022-08-09T04:03:11.706Z,101094.72
2022-08-09T04:05:46.632Z,101097.25
2022-08-09T04:08:13.148Z,101100.13
2022-08-09T04:10:39.806Z,101098.84
2022-08-09T04:13:12.379Z,101108.06
2022-08-09T04:16:19.313Z,101105.06
2022-08-09T04:18:32.168Z,101109.63
2022-08-09T04:20:58.722Z,101106.88
2022-08-09T04:23:25.624Z,101108.66
2022-08-09T04:25:53.862Z,101113.16
2022-08-09T04:28:33.978Z,101102.09
2022-08-09T04:31:09.343Z,101111.31
2022-08-09T04:33:47.656Z,101113.06
2022-08-09T04:36:30.502Z,101114.25
2022-08-09T04:39:00.831Z,101109.16
2022-08-09T04:41:32.987Z,101116.25
2022-08-09T04:44:05.662Z,101120.00
2022-08-09T04:46:38.108Z,101124.56
2022-08-09T04:49:40.295Z,101124.56
2022-08-09T04:52:09.632Z,101117.63
2022-08-09T04:54:36.486Z,101129.06
2022-08-09T04:57:03.799Z,101134.22
2022-08-09T04:59:31.465Z,101134.03
2022-08-09T05:01:58.164Z,101131.66
2022-08-09T05:04:31.171Z,101139.47
2022-08-09T05:06:58.680Z,101140.13
2022-08-09T05:09:25.242Z,101147.91
2022-08-09T05:12:09.487Z,101146.34
2022-08-09T05:14:37.775Z,101146.31
2022-08-09T05:17:15.451Z,101145.75
2022-08-09T05:19:57.054Z,101146.13
2022-08-09T05:22:33.471Z,101144.31
2022-08-09T05:25:05.216Z,101152.28
2022-08-09T05:27:31.717Z,101145.97
2022-08-09T05:29:59.056Z,101153.72
2022-08-09T05:32:26.414Z,101150.97
2022-08-09T05:34:56.595Z,101148.44
2022-08-09T05:37:23.781Z,101154.25
2022-08-09T05:39:52.339Z,101157.63
2022-08-09T05:42:21.543Z,101157.75
2022-08-09T05:44:52.985Z,101158.19
2022-08-09T05:47:21.757Z,101157.81
2022-08-09T05:50:30.096Z,101158.56
2022-08-09T05:52:38.661Z,101163.94
2022-08-09T05:55:07.230Z,101163.84
2022-08-09T05:57:53.800Z,101161.38
2022-08-09T06:00:22.342Z,101161.09
2022-08-09T06:02:49.058Z,101168.16
2022-08-09T06:05:20.937Z,101166.28
2022-08-09T06:08:08.947Z,101168.88
2022-08-09T06:10:38.614Z,101183.03
2022-08-09T06:13:12.127Z,101176.06
2022-08-09T06:15:44.788Z,101172.03
2022-08-09T06:18:13.622Z,101167.91
2022-08-09T06:20:42.793Z,101163.94
2022-08-09T06:23:12.025Z,101172.38
2022-08-09T06:25:42.155Z,101170.66
2022-08-09T06:28:09.911Z,101172.00
2022-08-09T06:30:36.369Z,101178.41
2022-08-09T06:33:39.750Z,101186.16
2022-08-09T06:35:57.397Z,101189.47
2022-08-09T06:38:32.148Z,101187.16
2022-08-09T06:41:04.510Z,101189.97
2022-08-09T06:43:34.081Z,101179.63
2022-08-09T06:46:06.807Z,101185.69
2022-08-09T06:48:36.715Z,101186.41
2022-08-09T06:51:10.473Z,101185.63
2022-08-09T06:53:38.525Z,101188.47
2022-08-09T06:56:09.296Z,101190.69
2022-08-09T07:00:51.796Z,101192.69
2022-08-09T07:01:24.243Z,101191.91
2022-08-09T07:03:56.696Z,101187.78
2022-08-09T07:06:28.033Z,101187.84
2022-08-09T07:08:56.313Z,101188.41
2022-08-09T07:11:25.388Z,101195.56
2022-08-09T07:14:05.121Z,101196.28
2022-08-09T07:16:42.295Z,101194.78
2022-08-09T07:19:23.175Z,101198.78
2022-08-09T07:21:57.167Z,101203.16
2022-08-09T07:24:32.027Z,101200.78
2022-08-09T07:27:01.066Z,101204.00
2022-08-09T07:29:30.851Z,101202.91
2022-08-09T07:32:05.491Z,101207.28
2022-08-09T07:34:32.313Z,101196.75
2022-08-09T07:37:02.670Z,101205.09
2022-08-09T07:39:40.556Z,101202.75
2022-08-09T07:42:08.390Z,101203.56
2022-08-09T07:44:51.899Z,101198.19
2022-08-09T07:47:49.309Z,101197.41
2022-08-09T07:50:09.339Z,101198.41
2022-08-09T07:52:37.672Z,101204.06
2022-08-09T07:55:08.841Z,101202.53
2022-08-09T07:57:36.399Z,101199.88
2022-08-09T08:00:04.962Z,101206.38
2022-08-09T08:02:36.030Z,101215.16
2022-08-09T08:05:17.975Z,101212.50
2022-08-09T08:08:43.661Z,101210.75
2022-08-09T08:10:34.320Z,101197.53
2022-08-09T08:13:01.031Z,101203.59
2022-08-09T08:15:30.979Z,101207.63
2022-08-09T08:18:04.319Z,101206.00
2022-08-09T08:20:32.872Z,101208.00
2022-08-09T08:23:06.306Z,101203.75
2022-08-09T08:25:44.268Z,101200.34
2022-08-09T08:28:14.202Z,101216.72
2022-08-09T08:30:41.769Z,101206.19
2022-08-09T08:33:12.199Z,101209.16
2022-08-09T08:35:58.726Z,101212.03
2022-08-09T08:38:27.975Z,101212.94
2022-08-09T08:40:57.648Z,101208.69
2022-08-09T08:43:26.594Z,101208.03
2022-08-09T08:46:10.022Z,101210.47
2022-08-09T08:48:51.216Z,101208.72
2022-08-09T08:51:21.251Z,101208.06
2022-08-09T08:54:04.511Z,101200.81
2022-08-09T08:56:34.550Z,101201.50
2022-08-09T08:59:18.684Z,101198.41
2022-08-09T09:01:57.036Z,101201.16
2022-08-09T09:04:37.858Z,101194.94
2022-08-09T09:07:15.375Z,101192.47
2022-08-09T09:10:01.559Z,101186.44
2022-08-09T09:12:31.285Z,101190.31
2022-08-09T09:15:02.114Z,101188.88
2022-08-09T09:17:30.769Z,101195.81
2022-08-09T09:20:15.950Z,101192.72
2022-08-09T09:22:52.512Z,101185.19
2022-08-09T09:26:01.002Z,101186.06
2022-08-09T09:29:02.784Z,101192.97
2022-08-09T09:32:01.836Z,101190.84
2022-08-09T09:34:14.327Z,101178.75
2022-08-09T09:36:46.653Z,101179.25
2022-08-09T09:39:20.299Z,101175.56
2022-08-09T09:41:49.146Z,101180.91
2022-08-09T09:44:28.128Z,101175.00
2022-08-09T09:47:05.685Z,101178.78
2022-08-09T09:49:56.362Z,101172.84
2022-08-09T09:52:36.309Z,101173.81
2022-08-09T09:55:27.613Z,101171.97
2022-08-09T09:58:16.236Z,101172.84
2022-08-09T10:00:53.807Z,101167.41
2022-08-09T10:03:56.195Z,101159.06
2022-08-09T10:06:24.415Z,101169.22
2022-08-09T10:08:55.335Z,101159.25
2022-08-09T10:11:59.663Z,101162.97
2022-08-09T10:14:27.251Z,101159.47
2022-08-09T10:17:00.261Z,101160.56
2022-08-09T10:19:38.665Z,101159.75
2022-08-09T10:22:06.934Z,101158.34
2022-08-09T10:24:36.106Z,101159.25
2022-08-09T10:27:03.192Z,101161.03
2022-08-09T10:30:29.996Z,101152.97
2022-08-09T10:32:42.532Z,101150.66
2022-08-09T10:35:10.394Z,101155.84
2022-08-09T10:37:40.252Z,101148.41
2022-08-09T10:40:12.173Z,101148.81
2022-08-09T10:42:55.980Z,101146.75
2022-08-09T10:45:24.153Z,101139.06
2022-08-09T10:48:31.109Z,101144.00
2022-08-09T10:51:29.614Z,101140.03
2022-08-09T10:54:06.019Z,101130.94
2022-08-09T10:56:40.488Z,101137.06
2022-08-09T10:59:31.338Z,101118.06
2022-08-09T11:03:17.888Z,101123.09
2022-08-09T11:05:25.416Z,101126.53
2022-08-09T11:07:59.381Z,101124.22
2022-08-09T11:10:41.055Z,101120.34
2022-08-09T11:13:49.008Z,101121.78
2022-08-09T11:16:37.412Z,101117.78
2022-08-09T11:19:09.897Z,101121.41
2022-08-09T11:21:55.240Z,101118.06
2022-08-09T11:24:25.017Z,101114.50
2022-08-09T11:26:52.179Z,101114.63
2022-08-09T11:30:06.468Z,101117.34
2022-08-09T11:32:47.879Z,101104.94
2022-08-09T11:35:35.320Z,101109.03
2022-08-09T11:38:22.214Z,101117.72
2022-08-09T11:40:55.980Z,101112.41
2022-08-09T11:43:25.162Z,101105.41
2022-08-09T11:45:59.517Z,101096.66
2022-08-09T11:48:30.172Z,101110.09
2022-08-09T11:52:49.084Z,101098.31
2022-08-09T11:54:01.305Z,101098.53
2022-08-09T11:56:41.530Z,101094.16
2022-08-09T11:59:11.934Z,101089.09
2022-08-09T12:02:17.722Z,101092.50
2022-08-09T12:04:28.792Z,101084.53
2022-08-09T12:06:59.133Z,101076.41
2022-08-09T12:09:33.881Z,101078.94
2022-08-09T12:12:12.336Z,101071.91
2022-08-09T12:15:03.734Z,101068.38
2022-08-09T12:17:34.549Z,101067.22
2022-08-09T12:20:28.165Z,101064.56
2022-08-09T12:23:01.708Z,101063.09
2022-08-09T12:25:38.034Z,101057.22
2022-08-09T12:29:13.384Z,101060.03
2022-08-09T12:31:10.819Z,101062.81
2022-08-09T12:34:00.892Z,101052.75
2022-08-09T12:36:32.420Z,101046.66
2022-08-09T12:39:02.483Z,101041.53
2022-08-09T12:41:39.262Z,101042.31
2022-08-09T12:44:12.891Z,101039.56
2022-08-09T12:46:49.904Z,101040.47
2022-08-09T12:49:18.033Z,101035.16
2022-08-09T12:52:02.293Z,101028.19
2022-08-09T12:55:03.290Z,101029.44
2022-08-09T12:57:43.100Z,101033.88
2022-08-09T13:00:25.781Z,101028.69
2022-08-09T13:02:58.299Z,101027.69
2022-08-09T13:05:27.683Z,101022.88
2022-08-09T13:08:21.245Z,101020.38
2022-08-09T13:11:22.644Z,101022.03
2022-08-09T13:14:41.251Z,101018.69
2022-08-09T13:16:57.446Z,101004.47
2022-08-09T13:20:06.809Z,101003.53
2022-08-09T13:22:37.693Z,101002.50
2022-08-09T13:25:04.011Z,100995.53
2022-08-09T13:27:55.100Z,100989.56
2022-08-09T13:30:48.839Z,100996.16
2022-08-09T13:33:35.882Z,100986.59
2022-08-09T13:36:24.187Z,100988.16
2022-08-09T13:41:19.327Z,100983.59
2022-08-09T13:42:01.033Z,100979.09
2022-08-09T13:44:29.293Z,100968.19
2022-08-09T13:47:25.273Z,100964.72
2022-08-09T13:49:57.532Z,100970.94
2022-08-09T13:52:25.942Z,100971.50
2022-08-09T13:54:59.863Z,100956.59
2022-08-09T13:57:36.459Z,100953.38
2022-08-09T14:00:08.770Z,100955.78
2022-08-09T14:02:36.399Z,100947.75
2022-08-09T14:05:09.807Z,100951.41
2022-08-09T14:07:41.281Z,100948.63
2022-08-09T14:10:17.215Z,100943.44
2022-08-09T14:12:55.416Z,100946.16
2022-08-09T14:16:09.834Z,100936.47
2022-08-09T14:18:19.799Z,100939.13
2022-08-09T14:20:57.003Z,100938.31
2022-08-09T14:23:40.694Z,100933.03
2022-08-09T14:26:10.262Z,100937.41
2022-08-09T14:28:37.722Z,100933.03
2022-08-09T14:31:04.302Z,100940.22
2022-08-09T14:33:30.967Z,100927.75
2022-08-09T14:36:19.718Z,100931.38
2022-08-09T14:38:53.000Z,100929.50
2022-08-09T14:41:34.529Z,100928.56
2022-08-09T14:44:06.489Z,100926.72
2022-08-09T14:46:57.566Z,100924.84
2022-08-09T14:49:23.692Z,100911.59
2022-08-09T14:51:50.979Z,100918.72
2022-08-09T14:54:27.899Z,100909.97
2022-08-09T14:56:57.597Z,100913.63
2022-08-09T14:59:24.865Z,100916.25
2022-08-09T15:01:53.628Z,100916.16
2022-08-09T15:04:20.176Z,100917.00
2022-08-09T15:06:50.259Z,100915.25
2022-08-09T15:10:03.091Z,100915.25
2022-08-09T15:12:07.818Z,100909.19
2022-08-09T15:14:38.521Z,100918.03
2022-08-09T15:17:07.740Z,100913.66
2022-08-09T15:19:36.472Z,100911.91
2022-08-09T15:22:03.432Z,100908.28
2022-08-09T15:24:30.185Z,100909.19
2022-08-09T15:26:57.636Z,100901.16
2022-08-09T15:30:58.280Z,100906.47
2022-08-09T15:32:29.764Z,100901.22
2022-08-09T15:35:00.293Z,100904.06
2022-08-09T15:37:37.702Z,100903.09
2022-08-09T15:40:25.309Z,100899.53
2022-08-09T15:42:59.233Z,100904.84
2022-08-09T15:45:29.847Z,100902.19
2022-08-09T15:48:05.202Z,100901.22
2022-08-09T15:50:33.399Z,100904.78
2022-08-09T15:53:06.107Z,100895.06
2022-08-09T15:55:34.497Z,100888.81
2022-08-09T15:58:26.821Z,100891.38
2022-08-09T16:00:54.094Z,100889.66
2022-08-09T16:03:29.641Z,100887.84
2022-08-09T16:06:06.814Z,100894.03
2022-08-09T16:08:44.608Z,100893.22
2022-08-09T16:11:16.289Z,100887.88
2022-08-09T16:14:03.637Z,100888.78
2022-08-09T16:16:31.605Z,100892.28
2022-08-09T16:18:58.718Z,100881.50
2022-08-09T16:21:26.465Z,100889.47
2022-08-09T16:24:02.012Z,100885.06
2022-08-09T16:26:35.125Z,100886.88
2022-08-09T16:29:11.134Z,100890.50
2022-08-09T16:32:19.900Z,100881.50
2022-08-09T16:34:27.012Z,100881.50
2022-08-09T16:36:55.897Z,100879.78
2022-08-09T16:39:25.959Z,100883.31
2022-08-09T16:42:04.049Z,100885.97
2022-08-09T16:44:32.098Z,100884.16
2022-08-09T16:47:03.787Z,100883.25
2022-08-09T16:50:28.736Z,100879.59
2022-08-09T16:52:17.367Z,100879.56
2022-08-09T16:54:45.864Z,100879.59
2022-08-09T16:57:12.374Z,100880.59
2022-08-09T16:59:43.853Z,100877.03
2022-08-09T17:02:17.841Z,100882.28
2022-08-09T17:04:50.281Z,100885.81
2022-08-09T17:08:44.245Z,100891.97
2022-08-09T17:10:07.752Z,100888.38
2022-08-09T17:12:35.749Z,100889.22
2022-08-09T17:15:02.489Z,100897.13
2022-08-09T17:17:50.953Z,100903.38
2022-08-09T17:20:32.472Z,100892.72
2022-08-09T17:23:04.958Z,100898.94
2022-08-09T17:25:37.114Z,100905.16
2022-08-09T17:28:06.383Z,100906.91
2022-08-09T17:30:34.086Z,100913.13
2022-08-09T17:33:05.053Z,100913.13
2022-08-09T17:35:34.292Z,100913.94
2022-08-09T17:38:12.000Z,100913.88
2022-08-09T17:40:47.583Z,100912.03
2022-08-09T17:43:34.180Z,100915.53
2022-08-09T17:46:06.638Z,100919.00
2022-08-09T17:48:38.640Z,100912.81
2022-08-09T17:51:09.447Z,100929.53
2022-08-09T17:53:48.201Z,100925.00
2022-08-09T17:56:20.429Z,100916.97
2022-08-09T17:58:47.219Z,100926.69
2022-08-09T18:01:15.639Z,100929.28
2022-08-09T18:03:49.359Z,100926.53
2022-08-09T18:06:31.274Z,100944.13
2022-08-09T18:09:04.561Z,100936.94
2022-08-09T18:12:04.775Z,100938.66
2022-08-09T18:14:21.566Z,100936.81
2022-08-09T18:16:49.715Z,100934.03
2022-08-09T18:20:54.657Z,100940.16
2022-08-09T18:22:04.051Z,100946.25
2022-08-09T18:24:31.017Z,100949.66
2022-08-09T18:26:57.650Z,100946.94
2022-08-09T18:30:41.574Z,100947.66
2022-08-09T18:32:14.441Z,100953.19
2022-08-09T18:34:45.823Z,100958.88
2022-08-09T18:37:47.395Z,100962.25
2022-08-09T18:40:01.799Z,100967.47
2022-08-09T18:42:29.439Z,100970.00
2022-08-09T18:44:56.953Z,100973.47
2022-08-09T18:47:27.595Z,100973.28
2022-08-09T18:50:03.040Z,100985.41
2022-08-09T18:52:34.604Z,100986.84
2022-08-09T18:55:02.007Z,100989.09
2022-08-09T18:57:43.268Z,100990.47
2022-08-09T19:00:16.304Z,100997.47
2022-08-09T19:02:46.458Z,100995.66
2022-08-09T19:05:20.629Z,101000.91
2022-08-09T19:08:04.894Z,100999.19
2022-08-09T19:10:39.240Z,101005.41
2022-08-09T19:13:20.763Z,101007.16
2022-08-09T19:15:52.071Z,101014.19
2022-08-09T19:18:33.975Z,101007.13
2022-08-09T19:21:03.432Z,101026.41
2022-08-09T19:24:33.389Z,101029.81
2022-08-09T19:26:18.862Z,101029.69
2022-08-09T19:28:55.961Z,101038.44
2022-08-09T19:31:27.872Z,101036.69
2022-08-09T19:33:57.913Z,101034.06
2022-08-09T19:36:30.989Z,101048.22
2022-08-09T19:39:03.522Z,101049.13
2022-08-09T19:41:33.107Z,101042.00
2022-08-09T19:44:03.371Z,101052.50
2022-08-09T19:46:35.150Z,101049.88
2022-08-09T19:50:09.277Z,101053.38
2022-08-09T19:51:55.278Z,101055.16
2022-08-09T19:54:27.023Z,101055.16
2022-08-09T19:56:55.358Z,101063.03
2022-08-09T19:59:58.443Z,101061.22
2022-08-09T20:04:12.370Z,101056.81
2022-08-09T20:04:58.746Z,101056.81
2022-08-09T20:07:26.188Z,101062.03
2022-08-09T20:10:17.701Z,101065.56
2022-08-09T20:12:49.004Z,101066.41
2022-08-09T20:16:38.055Z,101066.31
2022-08-09T20:18:02.790Z,101065.34
2022-08-09T20:20:29.376Z,101062.59
2022-08-09T20:22:56.757Z,101066.94
2022-08-09T20:25:23.852Z,101074.72
2022-08-09T20:27:51.014Z,101076.28
2022-08-09T20:30:18.065Z,101073.59
2022-08-09T20:32:52.367Z,101076.28
2022-08-09T20:35:20.353Z,101078.00
2022-08-09T20:38:21.201Z,101078.91
2022-08-09T20:40:33.517Z,101078.00
2022-08-09T20:43:19.144Z,101085.91
2022-08-09T20:45:59.543Z,101082.28
2022-08-09T20:48:36.794Z,101088.25
2022-08-09T20:51:04.039Z,101095.22
2022-08-09T20:53:37.509Z,101104.72
2022-08-09T20:56:07.197Z,101101.16
2022-08-09T20:58:35.598Z,101102.84
2022-08-09T21:01:32.741Z,101101.88
2022-08-09T21:05:49.037Z,101102.84
2022-08-09T21:06:41.390Z,101101.00
2022-08-09T21:09:11.857Z,101100.19
2022-08-09T21:14:30.823Z,101111.59
2022-08-09T21:16:59.357Z,101109.06
2022-08-09T21:20:17.131Z,101110.03
2022-08-09T21:22:35.700Z,101112.47
2022-08-09T21:25:17.834Z,101114.41
2022-08-09T21:27:52.216Z,101112.47
2022-08-09T21:30:19.959Z,101109.75
2022-08-09T21:32:49.344Z,101117.66
2022-08-09T21:35:16.528Z,101115.78
2022-08-09T21:37:58.860Z,101112.28
2022-08-09T21:40:30.742Z,101112.13
2022-08-09T21:43:00.068Z,101116.41
2022-08-09T21:45:27.542Z,101116.19
2022-08-09T21:47:54.073Z,101122.31
2022-08-09T21:50:26.201Z,101119.59
2022-08-09T21:53:06.916Z,101119.41
2022-08-09T21:55:46.847Z,101125.69
2022-08-09T21:58:13.522Z,101124.75
2022-08-09T22:00:40.764Z,101126.34
2022-08-09T22:03:12.534Z,101125.38
2022-08-09T22:05:46.372Z,101121.72
2022-08-09T22:08:18.434Z,101125.22
2022-08-09T22:11:04.861Z,101122.53
2022-08-09T22:13:35.731Z,101118.72
2022-08-09T22:16:07.526Z,101120.44
2022-08-09T22:18:35.092Z,101123.94
2022-08-09T22:21:09.362Z,101130.16
2022-08-09T22:23:59.025Z,101125.03
2022-08-09T22:26:34.294Z,101133.97
2022-08-09T22:29:06.767Z,101132.09
2022-08-09T22:31:35.493Z,101133.00
2022-08-09T22:34:02.565Z,101132.00
2022-08-09T22:36:29.014Z,101147.03
2022-08-09T22:39:04.166Z,101153.56
2022-08-09T22:41:30.809Z,101148.66
2022-08-09T22:44:01.278Z,101161.22
2022-08-09T22:48:11.472Z,101168.69
2022-08-09T22:49:17.198Z,101171.88
2022-08-09T22:51:56.350Z,101178.72
2022-08-09T22:54:27.121Z,101171.13
2022-08-09T22:56:56.866Z,101171.97
2022-08-09T22:59:57.299Z,101182.50
2022-08-09T23:02:11.128Z,101176.81
2022-08-09T23:04:42.422Z,101186.94
2022-08-09T23:08:21.360Z,101184.59
2022-08-09T23:10:13.993Z,101186.66
2022-08-09T23:12:40.542Z,101184.50
2022-08-09T23:15:07.425Z,101181.41
2022-08-09T23:17:34.204Z,101181.63
2022-08-09T23:20:07.922Z,101183.22
2022-08-09T23:22:35.869Z,101189.59
2022-08-09T23:25:04.581Z,101186.09
2022-08-09T23:27:31.083Z,101179.22
2022-08-09T23:29:57.611Z,101182.50
2022-08-09T23:32:24.119Z,101185.38
2022-08-09T23:34:50.671Z,101189.25
2022-08-09T23:37:21.305Z,101178.66
2022-08-09T23:39:49.580Z,101172.25
2022-08-09T23:42:16.144Z,101176.84
2022-08-09T23:44:42.704Z,101175.00
2022-08-09T23:47:09.271Z,101178.59
2022-08-09T23:49:35.750Z,101174.34
2022-08-09T23:52:02.264Z,101172.16
2022-08-09T23:54:28.753Z,101179.09
2022-08-09T23:56:58.405Z,101178.16
2022-08-09T23:59:25.884Z,101188.25
